sensor_id;sensor_type;location;lat;lon;timestamp;pressure;altitude;pressure_sealevel;temperature;humidity
35577;BME280;21680;52.400;16.920;2023-12-20T00:00:59;100015.63;;;6.29;98.71
35577;BME280;21680;52.400;16.920;2023-12-20T00:03:24;100007.23;;;6.30;98.76
35577;BME280;21680;52.400;16.920;2023-12-20T00:05:50;100003.95;;;6.32;98.86
35577;BME280;21680;52.400;16.920;2023-12-20T00:08:16;100000.36;;;6.34;98.94
35577;BME280;21680;52.400;16.920;2023-12-20T00:10:41;99998.84;;;6.36;98.91
35577;BME280;21680;52.400;16.920;2023-12-20T00:13:07;99997.91;;;6.37;98.99
35577;BME280;21680;52.400;16.920;2023-12-20T00:15:33;99998.31;;;6.36;98.85
35577;BME280;21680;52.400;16.920;2023-12-20T00:17:59;99991.42;;;6.35;98.95
35577;BME280;21680;52.400;16.920;2023-12-20T00:20:24;99992.30;;;6.35;99.07
35577;BME280;21680;52.400;16.920;2023-12-20T00:22:49;99988.29;;;6.34;98.83
35577;BME280;21680;52.400;16.920;2023-12-20T00:25:14;99987.41;;;6.34;99.00
35577;BME280;21680;52.400;16.920;2023-12-20T00:27:40;99985.20;;;6.35;99.15
35577;BME280;21680;52.400;16.920;2023-12-20T00:30:06;99989.59;;;6.37;99.23
35577;BME280;21680;52.400;16.920;2023-12-20T00:32:31;99987.89;;;6.35;99.11
35577;BME280;21680;52.400;16.920;2023-12-20T00:34:56;99984.67;;;6.35;99.20
35577;BME280;21680;52.400;16.920;2023-12-20T00:37:21;99986.03;;;6.37;99.28
35577;BME280;21680;52.400;16.920;2023-12-20T00:39:47;99977.85;;;6.38;99.35
35577;BME280;21680;52.400;16.920;2023-12-20T00:42:13;99982.27;;;6.38;99.36
35577;BME280;21680;52.400;16.920;2023-12-20T00:44:38;99977.50;;;6.37;99.30
35577;BME280;21680;52.400;16.920;2023-12-20T00:47:04;99977.39;;;6.36;99.15
35577;BME280;21680;52.400;16.920;2023-12-20T00:49:29;99977.94;;;6.31;99.23
35577;BME280;21680;52.400;16.920;2023-12-20T00:51:55;99977.17;;;6.32;99.49
35577;BME280;21680;52.400;16.920;2023-12-20T00:54:21;99978.82;;;6.35;99.62
35577;BME280;21680;52.400;16.920;2023-12-20T00:56:46;99975.75;;;6.37;99.49
35577;BME280;21680;52.400;16.920;2023-12-20T00:59:12;99971.67;;;6.37;99.51
35577;BME280;21680;52.400;16.920;2023-12-20T01:01:37;99973.10;;;6.36;99.42
35577;BME280;21680;52.400;16.920;2023-12-20T01:04:03;99972.38;;;6.36;99.54
35577;BME280;21680;52.400;16.920;2023-12-20T01:06:29;99973.60;;;6.37;99.52
35577;BME280;21680;52.400;16.920;2023-12-20T01:08:54;99975.73;;;6.38;99.56
35577;BME280;21680;52.400;16.920;2023-12-20T01:11:19;99968.58;;;6.39;99.62
35577;BME280;21680;52.400;16.920;2023-12-20T01:13:44;99961.63;;;6.39;99.57
35577;BME280;21680;52.400;16.920;2023-12-20T01:16:13;99964.81;;;6.39;99.64
35577;BME280;21680;52.400;16.920;2023-12-20T01:18:38;99966.10;;;6.38;99.53
35577;BME280;21680;52.400;16.920;2023-12-20T01:21:04;99967.27;;;6.36;99.48
35577;BME280;21680;52.400;16.920;2023-12-20T01:23:30;99964.05;;;6.36;99.55
35577;BME280;21680;52.400;16.920;2023-12-20T01:25:56;99966.33;;;6.37;99.68
35577;BME280;21680;52.400;16.920;2023-12-20T01:28:22;99965.48;;;6.36;99.60
35577;BME280;21680;52.400;16.920;2023-12-20T01:30:47;99965.23;;;6.33;99.38
35577;BME280;21680;52.400;16.920;2023-12-20T01:33:12;99967.66;;;6.30;99.43
35577;BME280;21680;52.400;16.920;2023-12-20T01:35:38;99953.96;;;6.26;99.42
35577;BME280;21680;52.400;16.920;2023-12-20T01:38:03;99959.45;;;6.27;99.57
35577;BME280;21680;52.400;16.920;2023-12-20T01:40:28;99956.89;;;6.24;99.56
35577;BME280;21680;52.400;16.920;2023-12-20T01:42:58;99949.80;;;6.24;99.61
35577;BME280;21680;52.400;16.920;2023-12-20T01:45:24;99936.00;;;6.23;99.66
35577;BME280;21680;52.400;16.920;2023-12-20T01:47:50;99931.38;;;6.23;99.71
35577;BME280;21680;52.400;16.920;2023-12-20T01:50:16;99930.80;;;6.24;99.79
35577;BME280;21680;52.400;16.920;2023-12-20T01:52:43;99927.12;;;6.23;99.77
35577;BME280;21680;52.400;16.920;2023-12-20T01:55:10;99932.49;;;6.26;99.84
35577;BME280;21680;52.400;16.920;2023-12-20T01:57:42;99935.36;;;6.26;99.83
35577;BME280;21680;52.400;16.920;2023-12-20T02:00:09;99931.17;;;6.24;99.80
35577;BME280;21680;52.400;16.920;2023-12-20T02:02:39;99925.55;;;6.22;99.76
35577;BME280;21680;52.400;16.920;2023-12-20T02:05:06;99928.57;;;6.22;99.86
35577;BME280;21680;52.400;16.920;2023-12-20T02:07:33;99920.61;;;6.22;99.88
35577;BME280;21680;52.400;16.920;2023-12-20T02:10:00;99921.73;;;6.20;99.83
35577;BME280;21680;52.400;16.920;2023-12-20T02:12:26;99921.15;;;6.21;99.83
35577;BME280;21680;52.400;16.920;2023-12-20T02:14:51;99916.36;;;6.21;99.85
35577;BME280;21680;52.400;16.920;2023-12-20T02:17:16;99914.20;;;6.22;99.80
35577;BME280;21680;52.400;16.920;2023-12-20T02:19:42;99917.89;;;6.23;99.84
35577;BME280;21680;52.400;16.920;2023-12-20T02:22:09;99918.61;;;6.23;99.90
35577;BME280;21680;52.400;16.920;2023-12-20T02:24:34;99912.44;;;6.22;99.90
35577;BME280;21680;52.400;16.920;2023-12-20T02:27:00;99914.67;;;6.19;99.87
35577;BME280;21680;52.400;16.920;2023-12-20T02:29:25;99909.44;;;6.16;99.76
35577;BME280;21680;52.400;16.920;2023-12-20T02:31:51;99911.05;;;6.16;99.87
35577;BME280;21680;52.400;16.920;2023-12-20T02:34:18;99909.73;;;6.13;99.81
35577;BME280;21680;52.400;16.920;2023-12-20T02:36:43;99904.52;;;6.10;99.91
35577;BME280;21680;52.400;16.920;2023-12-20T02:39:08;99900.31;;;6.09;99.93
35577;BME280;21680;52.400;16.920;2023-12-20T02:41:34;99902.43;;;6.09;99.96
35577;BME280;21680;52.400;16.920;2023-12-20T02:43:59;99897.74;;;6.07;99.77
35577;BME280;21680;52.400;16.920;2023-12-20T02:46:24;99899.54;;;6.06;99.89
35577;BME280;21680;52.400;16.920;2023-12-20T02:48:50;99899.20;;;6.06;99.92
35577;BME280;21680;52.400;16.920;2023-12-20T02:51:15;99896.80;;;6.03;99.80
35577;BME280;21680;52.400;16.920;2023-12-20T02:53:40;99892.09;;;6.01;99.89
35577;BME280;21680;52.400;16.920;2023-12-20T02:56:06;99896.80;;;6.03;99.99
35577;BME280;21680;52.400;16.920;2023-12-20T02:58:32;99901.86;;;6.05;99.98
35577;BME280;21680;52.400;16.920;2023-12-20T03:00:57;99897.98;;;6.05;99.97
35577;BME280;21680;52.400;16.920;2023-12-20T03:03:23;99900.06;;;6.06;100.00
35577;BME280;21680;52.400;16.920;2023-12-20T03:05:48;99906.15;;;6.04;99.99
35577;BME280;21680;52.400;16.920;2023-12-20T03:08:13;99896.73;;;6.01;99.89
35577;BME280;21680;52.400;16.920;2023-12-20T03:10:39;99892.13;;;6.00;99.96
35577;BME280;21680;52.400;16.920;2023-12-20T03:13:04;99893.23;;;6.00;99.99
35577;BME280;21680;52.400;16.920;2023-12-20T03:15:29;99890.56;;;5.99;100.00
35577;BME280;21680;52.400;16.920;2023-12-20T03:17:55;99891.61;;;6.00;99.95
35577;BME280;21680;52.400;16.920;2023-12-20T03:20:20;99884.45;;;5.97;99.89
35577;BME280;21680;52.400;16.920;2023-12-20T03:22:45;99879.08;;;5.98;100.00
35577;BME280;21680;52.400;16.920;2023-12-20T03:25:10;99882.70;;;6.01;100.00
35577;BME280;21680;52.400;16.920;2023-12-20T03:27:39;99878.01;;;6.03;100.00
35577;BME280;21680;52.400;16.920;2023-12-20T03:30:05;99872.84;;;6.04;100.00
35577;BME280;21680;52.400;16.920;2023-12-20T03:32:32;99871.71;;;6.01;99.98
35577;BME280;21680;52.400;16.920;2023-12-20T03:34:57;99862.80;;;5.98;100.00
35577;BME280;21680;52.400;16.920;2023-12-20T03:37:22;99863.86;;;5.97;100.00
35577;BME280;21680;52.400;16.920;2023-12-20T03:39:48;99868.30;;;5.97;100.00
35577;BME280;21680;52.400;16.920;2023-12-20T03:42:13;99873.20;;;5.99;100.00
35577;BME280;21680;52.400;16.920;2023-12-20T03:44:39;99874.94;;;6.00;100.00
35577;BME280;21680;52.400;16.920;2023-12-20T03:47:05;99878.96;;;6.01;100.00
35577;BME280;21680;52.400;16.920;2023-12-20T03:49:30;99882.52;;;6.01;100.00
35577;BME280;21680;52.400;16.920;2023-12-20T03:51:55;99871.66;;;5.98;99.97
35577;BME280;21680;52.400;16.920;2023-12-20T03:54:21;99870.07;;;5.97;100.00
35577;BME280;21680;52.400;16.920;2023-12-20T03:56:46;99873.77;;;5.98;100.00
35577;BME280;21680;52.400;16.920;2023-12-20T03:59:11;99864.09;;;6.01;100.00
35577;BME280;21680;52.400;16.920;2023-12-20T04:01:36;99867.19;;;6.03;100.00
35577;BME280;21680;52.400;16.920;2023-12-20T04:04:02;99869.94;;;6.01;100.00
35577;BME280;21680;52.400;16.920;2023-12-20T04:06:28;99870.16;;;5.99;100.00
35577;BME280;21680;52.400;16.920;2023-12-20T04:08:54;99867.86;;;5.99;100.00
35577;BME280;21680;52.400;16.920;2023-12-20T04:11:19;99868.66;;;6.02;100.00
35577;BME280;21680;52.400;16.920;2023-12-20T04:13:44;99870.59;;;6.02;100.00
35577;BME280;21680;52.400;16.920;2023-12-20T04:16:09;99868.05;;;6.00;100.00
35577;BME280;21680;52.400;16.920;2023-12-20T04:18:35;99868.85;;;5.97;100.00
35577;BME280;21680;52.400;16.920;2023-12-20T04:21:00;99865.91;;;5.95;100.00
35577;BME280;21680;52.400;16.920;2023-12-20T04:23:25;99861.73;;;5.93;100.00
35577;BME280;21680;52.400;16.920;2023-12-20T04:25:50;99863.77;;;5.95;100.00
35577;BME280;21680;52.400;16.920;2023-12-20T04:28:16;99860.23;;;5.95;100.00
35577;BME280;21680;52.400;16.920;2023-12-20T04:30:42;99856.75;;;5.93;100.00
35577;BME280;21680;52.400;16.920;2023-12-20T04:33:07;99862.73;;;5.94;100.00
35577;BME280;21680;52.400;16.920;2023-12-20T04:35:33;99855.02;;;5.92;100.00
35577;BME280;21680;52.400;16.920;2023-12-20T04:37:58;99855.80;;;5.95;100.00
35577;BME280;21680;52.400;16.920;2023-12-20T04:40:23;99851.76;;;5.94;100.00
35577;BME280;21680;52.400;16.920;2023-12-20T04:42:51;99852.70;;;5.92;100.00
35577;BME280;21680;52.400;16.920;2023-12-20T04:45:17;99855.73;;;5.92;100.00
35577;BME280;21680;52.400;16.920;2023-12-20T04:47:45;99849.40;;;5.90;100.00
35577;BME280;21680;52.400;16.920;2023-12-20T04:50:12;99855.39;;;5.92;100.00
35577;BME280;21680;52.400;16.920;2023-12-20T04:52:40;99849.06;;;5.90;100.00
35577;BME280;21680;52.400;16.920;2023-12-20T04:55:09;99850.12;;;5.90;100.00
35577;BME280;21680;52.400;16.920;2023-12-20T04:57:38;99844.05;;;5.92;100.00
35577;BME280;21680;52.400;16.920;2023-12-20T05:00:04;99847.06;;;5.92;100.00
35577;BME280;21680;52.400;16.920;2023-12-20T05:02:30;99855.29;;;5.89;100.00
35577;BME280;21680;52.400;16.920;2023-12-20T05:04:55;99859.94;;;5.87;100.00
35577;BME280;21680;52.400;16.920;2023-12-20T05:07:20;99859.09;;;5.86;100.00
35577;BME280;21680;52.400;16.920;2023-12-20T05:09:52;99855.56;;;5.85;100.00
35577;BME280;21680;52.400;16.920;2023-12-20T05:12:17;99856.75;;;5.88;100.00
35577;BME280;21680;52.400;16.920;2023-12-20T05:14:42;99859.70;;;5.90;100.00
35577;BME280;21680;52.400;16.920;2023-12-20T05:17:07;99860.78;;;5.89;100.00
35577;BME280;21680;52.400;16.920;2023-12-20T05:19:33;99871.10;;;5.88;100.00
35577;BME280;21680;52.400;16.920;2023-12-20T05:22:01;99863.14;;;5.87;100.00
35577;BME280;21680;52.400;16.920;2023-12-20T05:24:27;99857.79;;;5.88;100.00
35577;BME280;21680;52.400;16.920;2023-12-20T05:26:53;99852.85;;;5.87;100.00
35577;BME280;21680;52.400;16.920;2023-12-20T05:29:18;99862.56;;;5.89;100.00
35577;BME280;21680;52.400;16.920;2023-12-20T05:31:47;99857.16;;;5.92;100.00
35577;BME280;21680;52.400;16.920;2023-12-20T05:34:12;99857.98;;;5.93;100.00
35577;BME280;21680;52.400;16.920;2023-12-20T05:36:37;99855.70;;;5.93;100.00
35577;BME280;21680;52.400;16.920;2023-12-20T05:39:04;99865.05;;;5.94;100.00
35577;BME280;21680;52.400;16.920;2023-12-20T05:41:32;99857.95;;;5.94;100.00
35577;BME280;21680;52.400;16.920;2023-12-20T05:43:57;99853.96;;;5.96;100.00
35577;BME280;21680;52.400;16.920;2023-12-20T05:46:23;99852.89;;;5.97;100.00
35577;BME280;21680;52.400;16.920;2023-12-20T05:48:49;99854.41;;;5.99;100.00
35577;BME280;21680;52.400;16.920;2023-12-20T05:51:15;99853.52;;;5.99;100.00
35577;BME280;21680;52.400;16.920;2023-12-20T05:53:40;99848.42;;;5.98;100.00
35577;BME280;21680;52.400;16.920;2023-12-20T05:56:05;99849.58;;;6.00;100.00
35577;BME280;21680;52.400;16.920;2023-12-20T05:58:32;99853.98;;;6.00;100.00
35577;BME280;21680;52.400;16.920;2023-12-20T06:00:57;99851.73;;;5.99;100.00
35577;BME280;21680;52.400;16.920;2023-12-20T06:03:23;99854.02;;;6.00;100.00
35577;BME280;21680;52.400;16.920;2023-12-20T06:05:48;99854.52;;;6.00;100.00
35577;BME280;21680;52.400;16.920;2023-12-20T06:08:13;99860.71;;;6.01;100.00
35577;BME280;21680;52.400;16.920;2023-12-20T06:10:39;99853.25;;;6.01;100.00
35577;BME280;21680;52.400;16.920;2023-12-20T06:13:05;99847.72;;;6.02;100.00
35577;BME280;21680;52.400;16.920;2023-12-20T06:15:32;99851.05;;;6.04;100.00
35577;BME280;21680;52.400;16.920;2023-12-20T06:17:57;99843.56;;;6.04;100.00
35577;BME280;21680;52.400;16.920;2023-12-20T06:20:23;99850.01;;;6.02;100.00
35577;BME280;21680;52.400;16.920;2023-12-20T06:22:48;99839.67;;;5.99;100.00
35577;BME280;21680;52.400;16.920;2023-12-20T06:25:13;99842.46;;;6.00;100.00
35577;BME280;21680;52.400;16.920;2023-12-20T06:27:39;99841.61;;;5.99;100.00
35577;BME280;21680;52.400;16.920;2023-12-20T06:30:07;99842.77;;;6.02;100.00
35577;BME280;21680;52.400;16.920;2023-12-20T06:32:35;99847.33;;;6.03;100.00
35577;BME280;21680;52.400;16.920;2023-12-20T06:35:00;99852.52;;;6.02;100.00
35577;BME280;21680;52.400;16.920;2023-12-20T06:37:26;99860.45;;;6.03;100.00
35577;BME280;21680;52.400;16.920;2023-12-20T06:39:51;99867.61;;;6.01;100.00
35577;BME280;21680;52.400;16.920;2023-12-20T06:42:16;99863.60;;;6.00;100.00
35577;BME280;21680;52.400;16.920;2023-12-20T06:44:43;99857.01;;;6.00;100.00
35577;BME280;21680;52.400;16.920;2023-12-20T06:47:08;99854.69;;;6.01;100.00
35577;BME280;21680;52.400;16.920;2023-12-20T06:49:34;99859.07;;;6.02;100.00
35577;BME280;21680;52.400;16.920;2023-12-20T06:51:59;99856.90;;;5.98;100.00
35577;BME280;21680;52.400;16.920;2023-12-20T06:54:24;99862.39;;;5.99;100.00
35577;BME280;21680;52.400;16.920;2023-12-20T06:56:49;99866.95;;;6.00;100.00
35577;BME280;21680;52.400;16.920;2023-12-20T06:59:14;99867.46;;;6.01;100.00
35577;BME280;21680;52.400;16.920;2023-12-20T07:01:41;99873.61;;;6.02;100.00
35577;BME280;21680;52.400;16.920;2023-12-20T07:04:06;99874.91;;;6.00;100.00
35577;BME280;21680;52.400;16.920;2023-12-20T07:06:31;99874.20;;;6.01;100.00
35577;BME280;21680;52.400;16.920;2023-12-20T07:08:56;99879.08;;;5.98;100.00
35577;BME280;21680;52.400;16.920;2023-12-20T07:11:21;99885.66;;;5.98;100.00
35577;BME280;21680;52.400;16.920;2023-12-20T07:13:47;99889.67;;;5.95;100.00
35577;BME280;21680;52.400;16.920;2023-12-20T07:16:12;99891.23;;;5.91;100.00
35577;BME280;21680;52.400;16.920;2023-12-20T07:18:38;99893.77;;;5.89;100.00
35577;BME280;21680;52.400;16.920;2023-12-20T07:21:06;99897.75;;;5.92;100.00
35577;BME280;21680;52.400;16.920;2023-12-20T07:23:33;99906.19;;;5.94;100.00
35577;BME280;21680;52.400;16.920;2023-12-20T07:26:02;99908.30;;;5.94;100.00
35577;BME280;21680;52.400;16.920;2023-12-20T07:28:29;99910.40;;;5.95;100.00
35577;BME280;21680;52.400;16.920;2023-12-20T07:30:58;99910.14;;;5.92;100.00
35577;BME280;21680;52.400;16.920;2023-12-20T07:33:23;99911.90;;;5.93;100.00
35577;BME280;21680;52.400;16.920;2023-12-20T07:35:48;99904.81;;;5.93;100.00
35577;BME280;21680;52.400;16.920;2023-12-20T07:38:13;99902.40;;;5.91;100.00
35577;BME280;21680;52.400;16.920;2023-12-20T07:40:42;99911.52;;;5.94;100.00
35577;BME280;21680;52.400;16.920;2023-12-20T07:43:09;99916.23;;;5.96;100.00
35577;BME280;21680;52.400;16.920;2023-12-20T07:45:34;99912.03;;;5.94;100.00
35577;BME280;21680;52.400;16.920;2023-12-20T07:48:06;99915.36;;;5.90;100.00
35577;BME280;21680;52.400;16.920;2023-12-20T07:50:34;99912.58;;;5.88;100.00
35577;BME280;21680;52.400;16.920;2023-12-20T07:53:02;99910.87;;;5.86;100.00
35577;BME280;21680;52.400;16.920;2023-12-20T07:55:29;99910.70;;;5.86;100.00
35577;BME280;21680;52.400;16.920;2023-12-20T07:57:57;99910.66;;;5.87;100.00
35577;BME280;21680;52.400;16.920;2023-12-20T08:00:22;99901.45;;;5.87;100.00
35577;BME280;21680;52.400;16.920;2023-12-20T08:02:47;99907.48;;;5.86;100.00
35577;BME280;21680;52.400;16.920;2023-12-20T08:05:13;99909.16;;;5.84;100.00
35577;BME280;21680;52.400;16.920;2023-12-20T08:07:38;99896.46;;;5.82;100.00
35577;BME280;21680;52.400;16.920;2023-12-20T08:10:04;99898.41;;;5.82;100.00
35577;BME280;21680;52.400;16.920;2023-12-20T08:12:32;99897.50;;;5.83;100.00
35577;BME280;21680;52.400;16.920;2023-12-20T08:15:05;99887.64;;;5.81;100.00
35577;BME280;21680;52.400;16.920;2023-12-20T08:17:35;99884.73;;;5.79;100.00
35577;BME280;21680;52.400;16.920;2023-12-20T08:20:00;99884.32;;;5.75;100.00
35577;BME280;21680;52.400;16.920;2023-12-20T08:22:26;99892.19;;;5.73;100.00
35577;BME280;21680;52.400;16.920;2023-12-20T08:24:51;99887.11;;;5.71;100.00
35577;BME280;21680;52.400;16.920;2023-12-20T08:27:16;99887.39;;;5.68;100.00
35577;BME280;21680;52.400;16.920;2023-12-20T08:29:43;99887.16;;;5.65;100.00
35577;BME280;21680;52.400;16.920;2023-12-20T08:32:10;99892.34;;;5.64;100.00
35577;BME280;21680;52.400;16.920;2023-12-20T08:34:35;99890.57;;;5.64;100.00
35577;BME280;21680;52.400;16.920;2023-12-20T08:37:00;99891.89;;;5.62;100.00
35577;BME280;21680;52.400;16.920;2023-12-20T08:39:26;99895.40;;;5.63;100.00
35577;BME280;21680;52.400;16.920;2023-12-20T08:41:51;99898.26;;;5.62;100.00
35577;BME280;21680;52.400;16.920;2023-12-20T08:44:16;99892.23;;;5.62;100.00
35577;BME280;21680;52.400;16.920;2023-12-20T08:46:43;99894.48;;;5.64;100.00
35577;BME280;21680;52.400;16.920;2023-12-20T08:49:08;99893.38;;;5.65;100.00
35577;BME280;21680;52.400;16.920;2023-12-20T08:51:35;99895.27;;;5.66;100.00
35577;BME280;21680;52.400;16.920;2023-12-20T08:54:00;99895.25;;;5.67;100.00
35577;BME280;21680;52.400;16.920;2023-12-20T08:56:25;99896.72;;;5.66;100.00
35577;BME280;21680;52.400;16.920;2023-12-20T08:58:50;99899.52;;;5.67;100.00
35577;BME280;21680;52.400;16.920;2023-12-20T09:01:16;99908.67;;;5.68;100.00
35577;BME280;21680;52.400;16.920;2023-12-20T09:03:41;99906.40;;;5.67;100.00
35577;BME280;21680;52.400;16.920;2023-12-20T09:06:07;99910.48;;;5.67;100.00
35577;BME280;21680;52.400;16.920;2023-12-20T09:08:32;99898.42;;;5.67;100.00
35577;BME280;21680;52.400;16.920;2023-12-20T09:10:58;99896.40;;;5.69;100.00
35577;BME280;21680;52.400;16.920;2023-12-20T09:13:23;99891.16;;;5.67;100.00
35577;BME280;21680;52.400;16.920;2023-12-20T09:15:55;99890.52;;;5.66;99.99
35577;BME280;21680;52.400;16.920;2023-12-20T09:18:21;99883.60;;;5.66;100.00
35577;BME280;21680;52.400;16.920;2023-12-20T09:20:46;99886.61;;;5.66;100.00
35577;BME280;21680;52.400;16.920;2023-12-20T09:23:11;99886.32;;;5.64;99.99
35577;BME280;21680;52.400;16.920;2023-12-20T09:25:37;99882.88;;;5.61;100.00
35577;BME280;21680;52.400;16.920;2023-12-20T09:28:02;99880.45;;;5.60;99.88
35577;BME280;21680;52.400;16.920;2023-12-20T09:30:29;99877.69;;;5.57;99.92
35577;BME280;21680;52.400;16.920;2023-12-20T09:32:55;99876.95;;;5.58;99.94
35577;BME280;21680;52.400;16.920;2023-12-20T09:35:21;99874.02;;;5.61;99.97
35577;BME280;21680;52.400;16.920;2023-12-20T09:37:47;99877.35;;;5.62;99.95
35577;BME280;21680;52.400;16.920;2023-12-20T09:40:12;99877.12;;;5.64;99.83
35577;BME280;21680;52.400;16.920;2023-12-20T09:42:51;99882.14;;;5.67;99.98
35577;BME280;21680;52.400;16.920;2023-12-20T09:45:21;99886.17;;;5.73;99.95
35577;BME280;21680;52.400;16.920;2023-12-20T09:47:51;99870.75;;;5.78;99.96
35577;BME280;21680;52.400;16.920;2023-12-20T09:50:19;99881.92;;;5.83;99.98
35577;BME280;21680;52.400;16.920;2023-12-20T09:52:47;99874.98;;;5.83;99.91
35577;BME280;21680;52.400;16.920;2023-12-20T09:55:14;99876.13;;;5.86;99.86
35577;BME280;21680;52.400;16.920;2023-12-20T09:57:40;99861.63;;;5.85;99.77
35577;BME280;21680;52.400;16.920;2023-12-20T10:00:05;99865.27;;;5.87;99.83
35577;BME280;21680;52.400;16.920;2023-12-20T10:02:32;99867.41;;;5.86;99.57
35577;BME280;21680;52.400;16.920;2023-12-20T10:05:00;99859.38;;;5.83;99.46
35577;BME280;21680;52.400;16.920;2023-12-20T10:07:25;99849.79;;;5.84;99.68
35577;BME280;21680;52.400;16.920;2023-12-20T10:09:54;99851.71;;;5.84;99.53
35577;BME280;21680;52.400;16.920;2023-12-20T10:12:19;99851.98;;;5.87;99.54
35577;BME280;21680;52.400;16.920;2023-12-20T10:14:45;99840.33;;;5.85;99.34
35577;BME280;21680;52.400;16.920;2023-12-20T10:17:10;99835.35;;;5.86;99.35
35577;BME280;21680;52.400;16.920;2023-12-20T10:19:35;99827.38;;;5.86;99.21
35577;BME280;21680;52.400;16.920;2023-12-20T10:22:00;99823.83;;;5.85;99.24
35577;BME280;21680;52.400;16.920;2023-12-20T10:24:28;99823.52;;;5.84;99.10
35577;BME280;21680;52.400;16.920;2023-12-20T10:27:07;99825.68;;;5.84;99.04
35577;BME280;21680;52.400;16.920;2023-12-20T10:29:35;99821.16;;;5.81;98.94
35577;BME280;21680;52.400;16.920;2023-12-20T10:32:24;99821.07;;;5.79;99.09
35577;BME280;21680;52.400;16.920;2023-12-20T10:34:50;99816.13;;;5.79;99.01
35577;BME280;21680;52.400;16.920;2023-12-20T10:37:17;99815.52;;;5.80;98.93
35577;BME280;21680;52.400;16.920;2023-12-20T10:39:44;99810.99;;;5.78;98.88
35577;BME280;21680;52.400;16.920;2023-12-20T10:42:13;99810.05;;;5.75;98.72
35577;BME280;21680;52.400;16.920;2023-12-20T10:44:39;99799.09;;;5.74;98.73
35577;BME280;21680;52.400;16.920;2023-12-20T10:47:05;99800.80;;;5.76;98.65
35577;BME280;21680;52.400;16.920;2023-12-20T10:49:34;99789.66;;;5.75;98.67
35577;BME280;21680;52.400;16.920;2023-12-20T10:52:02;99797.27;;;5.76;98.57
35577;BME280;21680;52.400;16.920;2023-12-20T10:54:29;99800.64;;;5.75;98.57
35577;BME280;21680;52.400;16.920;2023-12-20T10:56:57;99796.50;;;5.77;98.47
35577;BME280;21680;52.400;16.920;2023-12-20T10:59:24;99791.88;;;5.78;98.56
35577;BME280;21680;52.400;16.920;2023-12-20T11:01:56;99783.67;;;5.79;98.45
35577;BME280;21680;52.400;16.920;2023-12-20T11:04:27;99787.83;;;5.81;98.47
35577;BME280;21680;52.400;16.920;2023-12-20T11:07:46;99782.39;;;5.80;98.33
35577;BME280;21680;52.400;16.920;2023-12-20T11:12:56;99769.61;;;5.85;98.34
35577;BME280;21680;52.400;16.920;2023-12-20T11:15:24;99758.52;;;5.87;98.38
35577;BME280;21680;52.400;16.920;2023-12-20T11:17:57;99761.38;;;5.87;98.29
35577;BME280;21680;52.400;16.920;2023-12-20T11:20:24;99766.03;;;5.86;98.13
35577;BME280;21680;52.400;16.920;2023-12-20T11:23:00;99747.74;;;5.82;97.99
35577;BME280;21680;52.400;16.920;2023-12-20T11:25:26;99758.36;;;5.82;98.12
35577;BME280;21680;52.400;16.920;2023-12-20T11:28:10;99751.05;;;5.79;98.04
35577;BME280;21680;52.400;16.920;2023-12-20T11:30:46;99743.95;;;5.79;97.94
35577;BME280;21680;52.400;16.920;2023-12-20T11:33:15;99747.79;;;5.76;97.85
35577;BME280;21680;52.400;16.920;2023-12-20T11:35:45;99738.05;;;5.76;97.91
35577;BME280;21680;52.400;16.920;2023-12-20T11:38:13;99739.95;;;5.77;97.98
35577;BME280;21680;52.400;16.920;2023-12-20T11:40:41;99724.03;;;5.76;97.77
35577;BME280;21680;52.400;16.920;2023-12-20T11:43:06;99726.91;;;5.75;97.62
35577;BME280;21680;52.400;16.920;2023-12-20T11:45:33;99724.83;;;5.74;97.67
35577;BME280;21680;52.400;16.920;2023-12-20T11:48:01;99716.98;;;5.71;97.64
35577;BME280;21680;52.400;16.920;2023-12-20T11:50:27;99721.35;;;5.68;97.48
35577;BME280;21680;52.400;16.920;2023-12-20T11:52:53;99719.84;;;5.65;97.57
35577;BME280;21680;52.400;16.920;2023-12-20T11:55:20;99727.58;;;5.62;97.56
35577;BME280;21680;52.400;16.920;2023-12-20T11:57:45;99717.65;;;5.58;97.57
35577;BME280;21680;52.400;16.920;2023-12-20T12:00:11;99720.46;;;5.53;97.45
35577;BME280;21680;52.400;16.920;2023-12-20T12:02:38;99704.54;;;5.48;97.57
35577;BME280;21680;52.400;16.920;2023-12-20T12:05:04;99707.64;;;5.50;97.66
35577;BME280;21680;52.400;16.920;2023-12-20T12:07:31;99701.09;;;5.50;97.62
35577;BME280;21680;52.400;16.920;2023-12-20T12:09:56;99699.59;;;5.48;97.52
35577;BME280;21680;52.400;16.920;2023-12-20T12:12:22;99689.82;;;5.44;97.31
35577;BME280;21680;52.400;16.920;2023-12-20T12:14:52;99683.05;;;5.45;97.60
35577;BME280;21680;52.400;16.920;2023-12-20T12:17:22;99677.64;;;5.47;97.67
35577;BME280;21680;52.400;16.920;2023-12-20T12:19:47;99668.92;;;5.48;97.57
35577;BME280;21680;52.400;16.920;2023-12-20T12:22:15;99678.39;;;5.46;97.47
35577;BME280;21680;52.400;16.920;2023-12-20T12:24:43;99680.30;;;5.47;97.43
35577;BME280;21680;52.400;16.920;2023-12-20T12:27:09;99673.27;;;5.46;97.50
35577;BME280;21680;52.400;16.920;2023-12-20T12:29:35;99662.84;;;5.45;97.42
35577;BME280;21680;52.400;16.920;2023-12-20T12:32:07;99656.91;;;5.43;97.53
35577;BME280;21680;52.400;16.920;2023-12-20T12:34:36;99667.03;;;5.47;97.48
35577;BME280;21680;52.400;16.920;2023-12-20T12:37:03;99656.39;;;5.47;97.61
35577;BME280;21680;52.400;16.920;2023-12-20T12:39:29;99656.20;;;5.47;97.36
35577;BME280;21680;52.400;16.920;2023-12-20T12:42:06;99644.47;;;5.44;97.42
35577;BME280;21680;52.400;16.920;2023-12-20T12:44:37;99645.32;;;5.45;97.51
35577;BME280;21680;52.400;16.920;2023-12-20T12:47:06;99640.15;;;5.45;97.25
35577;BME280;21680;52.400;16.920;2023-12-20T12:49:32;99640.20;;;5.44;97.40
35577;BME280;21680;52.400;16.920;2023-12-20T12:51:57;99634.78;;;5.47;97.42
35577;BME280;21680;52.400;16.920;2023-12-20T12:54:23;99634.04;;;5.48;97.37